Terminal Aerodrome Forecast
Issued by NWS

Home | Current Version | Previous Version | Text Only | Print | Product List | Glossary On
Versions: 1 2 3 4 5 6 7 8 9 10 11 12 13 14 15 16
834
FTUS42 TJSJ 272340
TAFJSJ
TAF
TJSJ 272340Z 2800/2824 09005KT P6SM VCSH FEW025
     FM281300 08012KT P6SM SCT025
     FM281600 07014KT P6SM VCTS SCT025CB
     FM282200 10006KT P6SM SCT030=

USA.gov is the U.S. government's official web portal to all federal, state and local government web resources and services.